sensor_id;sensor_type;location;lat;lon;timestamp;pressure;altitude;pressure_sealevel;temperature;humidity
71145;BME280;58812;47.698;17.726;2022-07-23T00:00:09;100165.72;;;22.74;61.28
71145;BME280;58812;47.698;17.726;2022-07-23T00:02:35;100163.81;;;22.74;61.18
71145;BME280;58812;47.698;17.726;2022-07-23T00:05:00;100165.72;;;22.74;61.09
71145;BME280;58812;47.698;17.726;2022-07-23T00:07:25;100169.75;;;22.71;61.21
71145;BME280;58812;47.698;17.726;2022-07-23T00:09:51;100175.41;;;22.70;61.54
71145;BME280;58812;47.698;17.726;2022-07-23T00:12:17;100181.19;;;22.61;61.97
71145;BME280;58812;47.698;17.726;2022-07-23T00:14:42;100174.12;;;22.54;62.60
71145;BME280;58812;47.698;17.726;2022-07-23T00:17:07;100160.72;;;22.52;62.53
71145;BME280;58812;47.698;17.726;2022-07-23T00:19:33;100160.53;;;22.47;62.58
71145;BME280;58812;47.698;17.726;2022-07-23T00:21:58;100165.41;;;22.45;62.92
71145;BME280;58812;47.698;17.726;2022-07-23T00:24:24;100164.81;;;22.43;62.92
71145;BME280;58812;47.698;17.726;2022-07-23T00:26:49;100174.25;;;22.40;62.91
71145;BME280;58812;47.698;17.726;2022-07-23T00:29:15;100168.06;;;22.33;63.08
71145;BME280;58812;47.698;17.726;2022-07-23T00:31:40;100167.22;;;22.33;62.84
71145;BME280;58812;47.698;17.726;2022-07-23T00:34:06;100162.22;;;22.30;62.91
71145;BME280;58812;47.698;17.726;2022-07-23T00:36:31;100157.69;;;22.24;63.36
71145;BME280;58812;47.698;17.726;2022-07-23T00:38:57;100161.44;;;22.23;63.12
71145;BME280;58812;47.698;17.726;2022-07-23T00:41:23;100152.66;;;22.21;63.26
71145;BME280;58812;47.698;17.726;2022-07-23T00:43:49;100158.59;;;22.18;63.63
71145;BME280;58812;47.698;17.726;2022-07-23T00:46:21;100155.69;;;22.12;63.77
71145;BME280;58812;47.698;17.726;2022-07-23T00:48:47;100158.22;;;22.07;63.98
71145;BME280;58812;47.698;17.726;2022-07-23T00:51:15;100159.50;;;22.05;63.75
71145;BME280;58812;47.698;17.726;2022-07-23T00:53:41;100163.28;;;22.04;63.76
71145;BME280;58812;47.698;17.726;2022-07-23T00:56:08;100163.34;;;21.97;64.12
71145;BME280;58812;47.698;17.726;2022-07-23T00:58:35;100162.50;;;21.97;63.92
71145;BME280;58812;47.698;17.726;2022-07-23T01:01:01;100164.69;;;21.88;64.33
71145;BME280;58812;47.698;17.726;2022-07-23T01:03:26;100155.87;;;21.86;64.38
71145;BME280;58812;47.698;17.726;2022-07-23T01:05:52;100163.84;;;21.87;64.15
71145;BME280;58812;47.698;17.726;2022-07-23T01:08:18;100155.06;;;21.85;64.42
71145;BME280;58812;47.698;17.726;2022-07-23T01:10:43;100152.34;;;21.85;64.44
71145;BME280;58812;47.698;17.726;2022-07-23T01:13:09;100149.44;;;21.80;64.59
71145;BME280;58812;47.698;17.726;2022-07-23T01:15:36;100151.34;;;21.80;64.88
71145;BME280;58812;47.698;17.726;2022-07-23T01:18:03;100143.00;;;21.75;65.17
71145;BME280;58812;47.698;17.726;2022-07-23T01:20:29;100144.03;;;21.74;64.92
71145;BME280;58812;47.698;17.726;2022-07-23T01:22:55;100139.59;;;21.79;64.79
71145;BME280;58812;47.698;17.726;2022-07-23T01:25:21;100149.44;;;21.80;64.97
71145;BME280;58812;47.698;17.726;2022-07-23T01:27:46;100153.88;;;21.75;65.31
71145;BME280;58812;47.698;17.726;2022-07-23T01:30:12;100147.00;;;21.72;65.78
71145;BME280;58812;47.698;17.726;2022-07-23T01:32:38;100139.72;;;21.66;66.50
71145;BME280;58812;47.698;17.726;2022-07-23T01:35:04;100141.81;;;21.64;66.33
71145;BME280;58812;47.698;17.726;2022-07-23T01:37:30;100141.22;;;21.62;66.27
71145;BME280;58812;47.698;17.726;2022-07-23T01:39:55;100147.72;;;21.61;66.54
71145;BME280;58812;47.698;17.726;2022-07-23T01:42:21;100155.66;;;21.63;66.58
71145;BME280;58812;47.698;17.726;2022-07-23T01:44:46;100149.59;;;21.60;66.83
71145;BME280;58812;47.698;17.726;2022-07-23T01:47:12;100140.03;;;21.51;67.10
71145;BME280;58812;47.698;17.726;2022-07-23T01:49:37;100141.09;;;21.50;67.04
71145;BME280;58812;47.698;17.726;2022-07-23T01:52:03;100139.03;;;21.46;67.54
71145;BME280;58812;47.698;17.726;2022-07-23T01:54:33;100138.66;;;21.42;67.56
71145;BME280;58812;47.698;17.726;2022-07-23T01:56:59;100139.47;;;21.43;67.33
71145;BME280;58812;47.698;17.726;2022-07-23T01:59:26;100132.13;;;21.43;67.02
71145;BME280;58812;47.698;17.726;2022-07-23T02:01:51;100131.31;;;21.43;67.09
71145;BME280;58812;47.698;17.726;2022-07-23T02:04:17;100138.66;;;21.42;67.34
71145;BME280;58812;47.698;17.726;2022-07-23T02:06:43;100126.50;;;21.38;67.54
71145;BME280;58812;47.698;17.726;2022-07-23T02:09:08;100130.72;;;21.34;67.36
71145;BME280;58812;47.698;17.726;2022-07-23T02:11:34;100139.94;;;21.33;67.22
71145;BME280;58812;47.698;17.726;2022-07-23T02:13:59;100139.97;;;21.26;67.49
71145;BME280;58812;47.698;17.726;2022-07-23T02:16:25;100145.47;;;21.20;67.74
71145;BME280;58812;47.698;17.726;2022-07-23T02:18:50;100132.50;;;21.15;67.61
71145;BME280;58812;47.698;17.726;2022-07-23T02:21:16;100141.50;;;21.16;67.46
71145;BME280;58812;47.698;17.726;2022-07-23T02:23:41;100139.81;;;21.15;67.18
71145;BME280;58812;47.698;17.726;2022-07-23T02:26:06;100141.31;;;21.11;67.11
71145;BME280;58812;47.698;17.726;2022-07-23T02:28:32;100146.38;;;21.07;67.15
71145;BME280;58812;47.698;17.726;2022-07-23T02:30:57;100146.59;;;21.05;66.98
71145;BME280;58812;47.698;17.726;2022-07-23T02:33:23;100153.94;;;21.05;66.69
71145;BME280;58812;47.698;17.726;2022-07-23T02:35:48;100150.34;;;21.04;66.40
71145;BME280;58812;47.698;17.726;2022-07-23T02:38:14;100148.91;;;21.02;66.16
71145;BME280;58812;47.698;17.726;2022-07-23T02:40:39;100148.94;;;20.95;66.25
71145;BME280;58812;47.698;17.726;2022-07-23T02:43:05;100149.37;;;20.92;66.21
71145;BME280;58812;47.698;17.726;2022-07-23T02:45:30;100150.84;;;20.95;66.09
71145;BME280;58812;47.698;17.726;2022-07-23T02:47:56;100155.00;;;20.97;65.97
71145;BME280;58812;47.698;17.726;2022-07-23T02:50:21;100146.22;;;20.95;66.03
71145;BME280;58812;47.698;17.726;2022-07-23T02:52:46;100140.78;;;20.95;66.18
71145;BME280;58812;47.698;17.726;2022-07-23T02:55:12;100146.84;;;20.97;66.29
71145;BME280;58812;47.698;17.726;2022-07-23T02:57:38;100154.34;;;21.02;65.98
71145;BME280;58812;47.698;17.726;2022-07-23T03:00:04;100140.75;;;21.02;65.95
71145;BME280;58812;47.698;17.726;2022-07-23T03:02:30;100136.78;;;20.98;66.17
71145;BME280;58812;47.698;17.726;2022-07-23T03:04:56;100137.22;;;20.95;66.25
71145;BME280;58812;47.698;17.726;2022-07-23T03:07:21;100136.41;;;20.94;66.66
71145;BME280;58812;47.698;17.726;2022-07-23T03:09:47;100136.00;;;20.91;66.70
71145;BME280;58812;47.698;17.726;2022-07-23T03:12:13;100129.31;;;20.87;66.85
71145;BME280;58812;47.698;17.726;2022-07-23T03:14:38;100135.16;;;20.90;66.61
71145;BME280;58812;47.698;17.726;2022-07-23T03:17:04;100141.03;;;20.87;66.68
71145;BME280;58812;47.698;17.726;2022-07-23T03:19:29;100140.19;;;20.87;66.83
71145;BME280;58812;47.698;17.726;2022-07-23T03:21:54;100136.25;;;20.83;66.79
71145;BME280;58812;47.698;17.726;2022-07-23T03:24:20;100136.63;;;20.86;66.62
71145;BME280;58812;47.698;17.726;2022-07-23T03:26:45;100137.69;;;20.85;66.71
71145;BME280;58812;47.698;17.726;2022-07-23T03:29:11;100132.88;;;20.87;66.56
71145;BME280;58812;47.698;17.726;2022-07-23T03:31:37;100129.94;;;20.89;66.35
71145;BME280;58812;47.698;17.726;2022-07-23T03:34:02;100132.63;;;20.95;66.45
71145;BME280;58812;47.698;17.726;2022-07-23T03:36:28;100127.59;;;20.92;66.56
71145;BME280;58812;47.698;17.726;2022-07-23T03:38:53;100134.69;;;21.00;66.33
71145;BME280;58812;47.698;17.726;2022-07-23T03:41:19;100135.50;;;21.07;66.13
71145;BME280;58812;47.698;17.726;2022-07-23T03:43:45;100145.53;;;21.06;66.88
71145;BME280;58812;47.698;17.726;2022-07-23T03:46:11;100142.37;;;21.10;66.24
71145;BME280;58812;47.698;17.726;2022-07-23T03:48:36;100145.09;;;21.10;66.19
71145;BME280;58812;47.698;17.726;2022-07-23T03:51:02;100138.78;;;21.16;66.25
71145;BME280;58812;47.698;17.726;2022-07-23T03:53:28;100139.78;;;21.21;66.01
71145;BME280;58812;47.698;17.726;2022-07-23T03:55:53;100138.75;;;21.29;65.82
71145;BME280;58812;47.698;17.726;2022-07-23T03:58:18;100142.25;;;21.36;65.42
71145;BME280;58812;47.698;17.726;2022-07-23T04:00:44;100140.81;;;21.27;65.94
71145;BME280;58812;47.698;17.726;2022-07-23T04:03:09;100141.72;;;21.14;67.60
71145;BME280;58812;47.698;17.726;2022-07-23T04:05:35;100153.81;;;21.25;66.49
71145;BME280;58812;47.698;17.726;2022-07-23T04:08:00;100159.47;;;21.30;66.42
71145;BME280;58812;47.698;17.726;2022-07-23T04:10:25;100157.97;;;21.34;66.30
71145;BME280;58812;47.698;17.726;2022-07-23T04:12:51;100159.41;;;21.37;66.01
71145;BME280;58812;47.698;17.726;2022-07-23T04:15:16;100160.84;;;21.39;65.92
71145;BME280;58812;47.698;17.726;2022-07-23T04:17:42;100163.94;;;21.49;65.68
71145;BME280;58812;47.698;17.726;2022-07-23T04:20:09;100164.00;;;21.68;65.08
71145;BME280;58812;47.698;17.726;2022-07-23T04:22:35;100166.19;;;21.84;64.39
71145;BME280;58812;47.698;17.726;2022-07-23T04:25:00;100163.69;;;22.07;63.42
71145;BME280;58812;47.698;17.726;2022-07-23T04:27:26;100162.06;;;22.25;62.87
71145;BME280;58812;47.698;17.726;2022-07-23T04:29:51;100158.87;;;22.46;62.41
71145;BME280;58812;47.698;17.726;2022-07-23T04:32:17;100153.59;;;22.51;63.02
71145;BME280;58812;47.698;17.726;2022-07-23T04:34:42;100157.75;;;22.72;62.04
71145;BME280;58812;47.698;17.726;2022-07-23T04:37:07;100158.28;;;22.81;61.50
71145;BME280;58812;47.698;17.726;2022-07-23T04:39:33;100154.03;;;22.85;61.92
71145;BME280;58812;47.698;17.726;2022-07-23T04:41:58;100147.97;;;23.01;61.71
71145;BME280;58812;47.698;17.726;2022-07-23T04:44:24;100146.72;;;23.15;61.15
71145;BME280;58812;47.698;17.726;2022-07-23T04:46:49;100149.47;;;23.27;60.36
71145;BME280;58812;47.698;17.726;2022-07-23T04:49:14;100163.38;;;23.26;60.42
71145;BME280;58812;47.698;17.726;2022-07-23T04:51:40;100162.50;;;23.43;59.79
71145;BME280;58812;47.698;17.726;2022-07-23T04:54:05;100167.75;;;23.57;58.48
71145;BME280;58812;47.698;17.726;2022-07-23T04:56:31;100165.78;;;23.87;57.87
71145;BME280;58812;47.698;17.726;2022-07-23T04:58:56;100176.37;;;24.07;57.10
71145;BME280;58812;47.698;17.726;2022-07-23T05:01:22;100175.81;;;24.05;57.87
71145;BME280;58812;47.698;17.726;2022-07-23T05:03:47;100174.59;;;24.01;58.56
71145;BME280;58812;47.698;17.726;2022-07-23T05:06:13;100174.72;;;24.30;57.91
71145;BME280;58812;47.698;17.726;2022-07-23T05:08:39;100162.37;;;24.39;57.99
71145;BME280;58812;47.698;17.726;2022-07-23T05:11:04;100166.72;;;24.75;56.86
71145;BME280;58812;47.698;17.726;2022-07-23T05:13:30;100162.81;;;25.11;55.94
71145;BME280;58812;47.698;17.726;2022-07-23T05:15:55;100156.75;;;25.54;54.10
71145;BME280;58812;47.698;17.726;2022-07-23T05:18:21;100165.25;;;25.70;53.60
71145;BME280;58812;47.698;17.726;2022-07-23T05:20:46;100159.94;;;25.63;52.42
71145;BME280;58812;47.698;17.726;2022-07-23T05:23:12;100161.59;;;25.64;52.67
71145;BME280;58812;47.698;17.726;2022-07-23T05:25:37;100168.19;;;25.80;52.69
71145;BME280;58812;47.698;17.726;2022-07-23T05:28:03;100153.41;;;26.36;51.33
71145;BME280;58812;47.698;17.726;2022-07-23T05:30:28;100164.62;;;26.96;50.12
71145;BME280;58812;47.698;17.726;2022-07-23T05:32:53;100159.72;;;27.20;49.71
71145;BME280;58812;47.698;17.726;2022-07-23T05:35:19;100149.81;;;27.46;49.18
71145;BME280;58812;47.698;17.726;2022-07-23T05:37:44;100156.16;;;26.75;48.72
71145;BME280;58812;47.698;17.726;2022-07-23T05:40:10;100147.72;;;26.60;49.46
71145;BME280;58812;47.698;17.726;2022-07-23T05:42:37;100147.69;;;27.04;49.15
71145;BME280;58812;47.698;17.726;2022-07-23T05:45:03;100144.72;;;27.32;48.33
71145;BME280;58812;47.698;17.726;2022-07-23T05:47:39;100134.44;;;27.77;47.71
71145;BME280;58812;47.698;17.726;2022-07-23T05:50:05;100141.72;;;27.98;46.68
71145;BME280;58812;47.698;17.726;2022-07-23T05:52:30;100126.94;;;28.46;45.65
71145;BME280;58812;47.698;17.726;2022-07-23T05:54:56;100129.66;;;28.41;45.37
71145;BME280;58812;47.698;17.726;2022-07-23T05:57:21;100131.13;;;28.64;44.64
71145;BME280;58812;47.698;17.726;2022-07-23T05:59:47;100138.81;;;29.35;43.25
71145;BME280;58812;47.698;17.726;2022-07-23T06:02:12;100138.28;;;29.79;42.11
71145;BME280;58812;47.698;17.726;2022-07-23T06:04:37;100142.09;;;30.29;41.20
71145;BME280;58812;47.698;17.726;2022-07-23T06:07:03;100145.94;;;30.43;40.17
71145;BME280;58812;47.698;17.726;2022-07-23T06:09:28;100151.25;;;30.24;40.70
71145;BME280;58812;47.698;17.726;2022-07-23T06:11:53;100153.19;;;30.19;40.48
71145;BME280;58812;47.698;17.726;2022-07-23T06:14:19;100148.19;;;30.31;39.81
71145;BME280;58812;47.698;17.726;2022-07-23T06:16:44;100158.84;;;30.63;39.55
71145;BME280;58812;47.698;17.726;2022-07-23T06:19:10;100156.69;;;31.20;38.51
71145;BME280;58812;47.698;17.726;2022-07-23T06:21:35;100156.53;;;31.45;37.83
71145;BME280;58812;47.698;17.726;2022-07-23T06:24:00;100166.84;;;31.74;36.82
71145;BME280;58812;47.698;17.726;2022-07-23T06:26:26;100162.06;;;32.13;36.01
71145;BME280;58812;47.698;17.726;2022-07-23T06:28:51;100170.72;;;32.36;35.20
71145;BME280;58812;47.698;17.726;2022-07-23T06:31:17;100186.00;;;33.05;34.23
71145;BME280;58812;47.698;17.726;2022-07-23T06:33:43;100186.81;;;32.82;34.32
71145;BME280;58812;47.698;17.726;2022-07-23T06:36:09;100192.06;;;33.07;34.19
71145;BME280;58812;47.698;17.726;2022-07-23T06:38:34;100188.53;;;33.20;33.93
71145;BME280;58812;47.698;17.726;2022-07-23T06:41:00;100183.97;;;32.92;34.84
71145;BME280;58812;47.698;17.726;2022-07-23T06:43:25;100186.13;;;32.47;35.61
71145;BME280;58812;47.698;17.726;2022-07-23T06:45:51;100184.38;;;32.56;35.62
71145;BME280;58812;47.698;17.726;2022-07-23T06:48:16;100178.63;;;32.18;36.42
71145;BME280;58812;47.698;17.726;2022-07-23T06:50:41;100187.56;;;31.81;34.41
71145;BME280;58812;47.698;17.726;2022-07-23T06:53:07;100191.62;;;31.89;35.34
71145;BME280;58812;47.698;17.726;2022-07-23T06:55:32;100187.34;;;31.28;36.72
71145;BME280;58812;47.698;17.726;2022-07-23T06:58:00;100191.91;;;30.94;37.17
71145;BME280;58812;47.698;17.726;2022-07-23T07:00:26;100187.22;;;30.89;37.42
71145;BME280;58812;47.698;17.726;2022-07-23T07:02:53;100180.97;;;30.53;38.52
71145;BME280;58812;47.698;17.726;2022-07-23T07:05:18;100187.62;;;31.22;37.42
71145;BME280;58812;47.698;17.726;2022-07-23T07:07:44;100179.69;;;31.54;37.09
71145;BME280;58812;47.698;17.726;2022-07-23T07:10:09;100182.75;;;31.53;37.61
71145;BME280;58812;47.698;17.726;2022-07-23T07:12:35;100186.69;;;31.86;36.84
71145;BME280;58812;47.698;17.726;2022-07-23T07:15:00;100178.63;;;32.18;36.44
71145;BME280;58812;47.698;17.726;2022-07-23T07:17:26;100182.47;;;32.52;35.72
71145;BME280;58812;47.698;17.726;2022-07-23T07:19:51;100183.97;;;31.81;36.94
71145;BME280;58812;47.698;17.726;2022-07-23T07:22:16;100184.84;;;32.63;35.40
71145;BME280;58812;47.698;17.726;2022-07-23T07:24:42;100178.69;;;32.66;34.52
71145;BME280;58812;47.698;17.726;2022-07-23T07:27:07;100185.63;;;31.82;33.95
71145;BME280;58812;47.698;17.726;2022-07-23T07:29:33;100184.62;;;32.26;33.56
71145;BME280;58812;47.698;17.726;2022-07-23T07:31:58;100187.38;;;31.68;33.42
71145;BME280;58812;47.698;17.726;2022-07-23T07:34:23;100181.12;;;31.91;33.65
71145;BME280;58812;47.698;17.726;2022-07-23T07:36:49;100178.22;;;32.35;32.88
71145;BME280;58812;47.698;17.726;2022-07-23T07:39:15;100183.00;;;31.96;33.84
71145;BME280;58812;47.698;17.726;2022-07-23T07:41:40;100176.94;;;32.23;33.58
71145;BME280;58812;47.698;17.726;2022-07-23T07:44:06;100178.56;;;32.77;32.98
71145;BME280;58812;47.698;17.726;2022-07-23T07:46:31;100185.25;;;33.00;32.83
71145;BME280;58812;47.698;17.726;2022-07-23T07:48:56;100183.66;;;32.93;32.45
71145;BME280;58812;47.698;17.726;2022-07-23T07:51:22;100186.37;;;32.99;32.56
71145;BME280;58812;47.698;17.726;2022-07-23T07:53:47;100191.56;;;34.46;30.46
71145;BME280;58812;47.698;17.726;2022-07-23T07:56:13;100209.50;;;35.22;29.41
71145;BME280;58812;47.698;17.726;2022-07-23T07:58:38;100197.25;;;35.46;29.37
71145;BME280;58812;47.698;17.726;2022-07-23T08:01:04;100194.34;;;34.73;30.34
71145;BME280;58812;47.698;17.726;2022-07-23T08:03:29;100200.63;;;34.65;30.48
71145;BME280;58812;47.698;17.726;2022-07-23T08:05:55;100184.88;;;34.74;30.62
71145;BME280;58812;47.698;17.726;2022-07-23T08:08:20;100199.81;;;34.78;30.71
71145;BME280;58812;47.698;17.726;2022-07-23T08:10:45;100192.69;;;34.72;30.77
71145;BME280;58812;47.698;17.726;2022-07-23T08:13:15;100193.63;;;34.54;30.56
71145;BME280;58812;47.698;17.726;2022-07-23T08:15:42;100197.13;;;34.13;31.32
71145;BME280;58812;47.698;17.726;2022-07-23T08:18:08;100206.59;;;35.14;29.98
71145;BME280;58812;47.698;17.726;2022-07-23T08:20:34;100201.97;;;34.08;32.36
71145;BME280;58812;47.698;17.726;2022-07-23T08:23:03;100199.59;;;34.47;31.20
71145;BME280;58812;47.698;17.726;2022-07-23T08:25:31;100197.75;;;34.84;30.43
71145;BME280;58812;47.698;17.726;2022-07-23T08:27:59;100201.34;;;34.85;30.01
71145;BME280;58812;47.698;17.726;2022-07-23T08:30:25;100197.06;;;35.42;29.08
71145;BME280;58812;47.698;17.726;2022-07-23T08:32:56;100197.13;;;33.81;31.03
71145;BME280;58812;47.698;17.726;2022-07-23T08:35:25;100205.59;;;34.96;29.77
71145;BME280;58812;47.698;17.726;2022-07-23T08:37:50;100219.38;;;35.28;29.57
71145;BME280;58812;47.698;17.726;2022-07-23T08:40:16;100208.25;;;35.15;29.54
71145;BME280;58812;47.698;17.726;2022-07-23T08:42:41;100209.19;;;34.83;30.75
71145;BME280;58812;47.698;17.726;2022-07-23T08:45:08;100212.31;;;35.58;30.00
71145;BME280;58812;47.698;17.726;2022-07-23T08:47:37;100223.19;;;35.46;29.85
71145;BME280;58812;47.698;17.726;2022-07-23T08:50:03;100213.75;;;35.56;29.68
71145;BME280;58812;47.698;17.726;2022-07-23T08:52:30;100218.75;;;36.66;28.59
71145;BME280;58812;47.698;17.726;2022-07-23T08:54:56;100221.72;;;35.21;30.72
71145;BME280;58812;47.698;17.726;2022-07-23T08:57:22;100218.56;;;35.14;30.69
71145;BME280;58812;47.698;17.726;2022-07-23T08:59:47;100213.81;;;34.13;31.87
71145;BME280;58812;47.698;17.726;2022-07-23T09:02:13;100211.16;;;34.96;30.89
71145;BME280;58812;47.698;17.726;2022-07-23T09:04:39;100221.78;;;35.57;29.67
71145;BME280;58812;47.698;17.726;2022-07-23T09:07:04;100225.34;;;35.36;30.20
71145;BME280;58812;47.698;17.726;2022-07-23T09:09:30;100225.72;;;36.46;28.98
71145;BME280;58812;47.698;17.726;2022-07-23T09:12:08;100227.94;;;36.35;29.03
71145;BME280;58812;47.698;17.726;2022-07-23T09:14:41;100220.59;;;36.17;29.31
71145;BME280;58812;47.698;17.726;2022-07-23T09:17:15;100223.09;;;36.41;29.44
71145;BME280;58812;47.698;17.726;2022-07-23T09:19:42;100232.31;;;36.50;29.12
71145;BME280;58812;47.698;17.726;2022-07-23T09:22:24;100239.00;;;35.96;29.53
71145;BME280;58812;47.698;17.726;2022-07-23T09:27:48;100225.97;;;35.69;29.93
71145;BME280;58812;47.698;17.726;2022-07-23T09:30:13;100234.69;;;36.12;30.17
71145;BME280;58812;47.698;17.726;2022-07-23T09:32:39;100220.69;;;34.62;31.91
71145;BME280;58812;47.698;17.726;2022-07-23T09:35:06;100232.34;;;35.47;30.68
71145;BME280;58812;47.698;17.726;2022-07-23T09:37:31;100225.25;;;35.13;30.82
71145;BME280;58812;47.698;17.726;2022-07-23T09:40:08;100230.50;;;36.01;30.06
71145;BME280;58812;47.698;17.726;2022-07-23T09:42:37;100228.25;;;35.67;30.27
71145;BME280;58812;47.698;17.726;2022-07-23T09:45:02;100217.28;;;35.48;30.56
71145;BME280;58812;47.698;17.726;2022-07-23T09:47:32;100229.09;;;35.90;29.68
71145;BME280;58812;47.698;17.726;2022-07-23T09:49:58;100225.66;;;35.70;30.78
71145;BME280;58812;47.698;17.726;2022-07-23T09:52:32;100224.00;;;35.19;30.78
71145;BME280;58812;47.698;17.726;2022-07-23T09:55:03;100222.16;;;35.28;30.19
71145;BME280;58812;47.698;17.726;2022-07-23T09:57:31;100219.19;;;34.84;31.13
71145;BME280;58812;47.698;17.726;2022-07-23T10:00:00;100212.22;;;36.17;29.38
71145;BME280;58812;47.698;17.726;2022-07-23T10:02:27;100212.59;;;35.57;30.05
71145;BME280;58812;47.698;17.726;2022-07-23T10:04:53;100208.50;;;35.41;30.96
71145;BME280;58812;47.698;17.726;2022-07-23T10:07:21;100211.28;;;35.54;29.84
71145;BME280;58812;47.698;17.726;2022-07-23T10:09:50;100207.47;;;35.50;30.28
71145;BME280;58812;47.698;17.726;2022-07-23T10:12:18;100204.00;;;35.67;30.11
71145;BME280;58812;47.698;17.726;2022-07-23T10:15:06;100210.19;;;36.54;29.11
71145;BME280;58812;47.698;17.726;2022-07-23T10:17:32;100204.00;;;37.14;28.21
71145;BME280;58812;47.698;17.726;2022-07-23T10:19:57;100200.69;;;36.95;28.00
71145;BME280;58812;47.698;17.726;2022-07-23T10:22:29;100196.94;;;36.06;29.42
71145;BME280;58812;47.698;17.726;2022-07-23T10:25:22;100186.06;;;36.58;28.60
71145;BME280;58812;47.698;17.726;2022-07-23T10:28:07;100184.88;;;36.42;29.11
71145;BME280;58812;47.698;17.726;2022-07-23T10:36:27;100189.06;;;35.85;29.22
71145;BME280;58812;47.698;17.726;2022-07-23T10:39:03;100181.97;;;36.64;27.75
71145;BME280;58812;47.698;17.726;2022-07-23T10:41:37;100181.34;;;37.24;27.52
71145;BME280;58812;47.698;17.726;2022-07-23T10:44:15;100173.72;;;36.42;29.38
71145;BME280;58812;47.698;17.726;2022-07-23T10:47:01;100168.34;;;37.28;28.29
71145;BME280;58812;47.698;17.726;2022-07-23T10:49:31;100170.34;;;37.97;27.51
71145;BME280;58812;47.698;17.726;2022-07-23T10:52:22;100173.28;;;37.14;28.82
71145;BME280;58812;47.698;17.726;2022-07-23T10:54:56;100169.69;;;37.91;27.09
71145;BME280;58812;47.698;17.726;2022-07-23T10:57:49;100165.91;;;38.52;26.53
71145;BME280;58812;47.698;17.726;2022-07-23T11:00:17;100156.38;;;37.80;27.40
71145;BME280;58812;47.698;17.726;2022-07-23T11:02:46;100157.19;;;37.80;27.63
71145;BME280;58812;47.698;17.726;2022-07-23T11:05:14;100150.97;;;37.66;27.63
71145;BME280;58812;47.698;17.726;2022-07-23T11:10:42;100143.75;;;37.39;28.05
71145;BME280;58812;47.698;17.726;2022-07-23T11:24:03;100140.62;;;38.39;25.99
71145;BME280;58812;47.698;17.726;2022-07-23T11:36:58;100115.31;;;37.46;27.72
71145;BME280;58812;47.698;17.726;2022-07-23T11:39:26;100104.47;;;38.26;26.23
71145;BME280;58812;47.698;17.726;2022-07-23T11:41:52;100096.97;;;38.09;26.33
71145;BME280;58812;47.698;17.726;2022-07-23T11:44:29;100101.03;;;38.88;25.39
71145;BME280;58812;47.698;17.726;2022-07-23T11:47:13;100100.91;;;38.84;25.13
71145;BME280;58812;47.698;17.726;2022-07-23T11:49:52;100100.91;;;38.84;24.98
71145;BME280;58812;47.698;17.726;2022-07-23T11:52:17;100085.31;;;38.74;25.17
71145;BME280;58812;47.698;17.726;2022-07-23T11:54:51;100082.16;;;38.46;25.02
71145;BME280;58812;47.698;17.726;2022-07-23T11:57:18;100081.37;;;39.17;24.64
71145;BME280;58812;47.698;17.726;2022-07-23T11:59:46;100074.16;;;39.16;24.62
71145;BME280;58812;47.698;17.726;2022-07-23T12:02:11;100072.56;;;39.28;24.68
71145;BME280;58812;47.698;17.726;2022-07-23T12:04:48;100067.63;;;39.45;24.11
71145;BME280;58812;47.698;17.726;2022-07-23T12:09:52;100057.66;;;39.36;23.99
71145;BME280;58812;47.698;17.726;2022-07-23T12:12:17;100057.91;;;39.76;23.74
71145;BME280;58812;47.698;17.726;2022-07-23T12:14:51;100067.44;;;39.09;23.94
71145;BME280;58812;47.698;17.726;2022-07-23T12:17:18;100061.00;;;39.29;24.27
71145;BME280;58812;47.698;17.726;2022-07-23T12:19:44;100054.28;;;39.42;24.09
71145;BME280;58812;47.698;17.726;2022-07-23T12:22:10;100063.25;;;39.36;24.11
71145;BME280;58812;47.698;17.726;2022-07-23T12:24:58;100060.69;;;39.64;23.85
71145;BME280;58812;47.698;17.726;2022-07-23T12:27:25;100061.03;;;39.08;24.78
71145;BME280;58812;47.698;17.726;2022-07-23T12:29:51;100056.44;;;38.23;25.57
71145;BME280;58812;47.698;17.726;2022-07-23T12:32:18;100055.81;;;39.40;24.37
71145;BME280;58812;47.698;17.726;2022-07-23T12:34:44;100053.03;;;39.52;24.02
71145;BME280;58812;47.698;17.726;2022-07-23T12:37:29;100045.38;;;39.28;24.22
71145;BME280;58812;47.698;17.726;2022-07-23T12:39:55;100038.28;;;39.10;24.70
71145;BME280;58812;47.698;17.726;2022-07-23T12:42:21;100042.84;;;39.68;23.74
71145;BME280;58812;47.698;17.726;2022-07-23T12:45:22;100045.28;;;39.70;24.08
71145;BME280;58812;47.698;17.726;2022-07-23T12:48:03;100032.69;;;38.38;25.99
71145;BME280;58812;47.698;17.726;2022-07-23T12:53:08;100024.00;;;38.61;25.46
71145;BME280;58812;47.698;17.726;2022-07-23T12:55:34;100015.44;;;37.60;27.11
71145;BME280;58812;47.698;17.726;2022-07-23T12:58:11;100017.16;;;38.50;25.56
71145;BME280;58812;47.698;17.726;2022-07-23T13:00:57;100017.88;;;39.42;24.40
71145;BME280;58812;47.698;17.726;2022-07-23T13:03:33;100018.53;;;39.06;24.15
71145;BME280;58812;47.698;17.726;2022-07-23T13:05:59;100017.59;;;39.23;23.91
71145;BME280;58812;47.698;17.726;2022-07-23T13:08:27;100015.66;;;39.81;23.77
71145;BME280;58812;47.698;17.726;2022-07-23T13:10:53;100009.25;;;39.14;24.48
71145;BME280;58812;47.698;17.726;2022-07-23T13:13:30;100006.84;;;38.41;25.84
71145;BME280;58812;47.698;17.726;2022-07-23T13:15:57;100014.72;;;38.69;25.43
71145;BME280;58812;47.698;17.726;2022-07-23T13:18:23;100019.13;;;38.70;25.24